createdAt,value
2019-05-14T00:00:45.201Z,5.91
2019-05-14T00:03:16.371Z,5.88
2019-05-14T00:05:48.182Z,5.72
2019-05-14T00:08:22.105Z,5.64
2019-05-14T00:10:52.978Z,5.52
2019-05-14T00:13:24.800Z,5.51
2019-05-14T00:15:56.664Z,5.53
2019-05-14T00:18:28.558Z,5.47
2019-05-14T00:21:01.986Z,5.50
2019-05-14T00:23:33.997Z,5.48
2019-05-14T00:26:05.964Z,5.38
2019-05-14T00:28:37.868Z,5.35
2019-05-14T00:31:11.978Z,5.35
2019-05-14T00:33:43.580Z,5.38
2019-05-14T00:36:15.541Z,5.33
2019-05-14T00:38:47.374Z,5.21
2019-05-14T00:41:21.311Z,5.18
2019-05-14T00:43:52.825Z,5.15
2019-05-14T00:46:24.767Z,5.12
2019-05-14T00:48:56.692Z,5.13
2019-05-14T00:51:28.670Z,5.04
2019-05-14T00:54:01.676Z,5.01
2019-05-14T00:56:33.720Z,5.07
2019-05-14T00:59:05.653Z,4.86
2019-05-14T01:01:37.612Z,4.89
2019-05-14T01:04:11.634Z,5.14
2019-05-14T01:06:43.125Z,5.00
2019-05-14T01:09:14.945Z,4.96
2019-05-14T01:11:46.924Z,5.02
2019-05-14T01:14:21.003Z,4.91
2019-05-14T01:16:52.298Z,4.82
2019-05-14T01:19:24.433Z,4.85
2019-05-14T01:21:56.280Z,4.91
2019-05-14T01:24:28.165Z,4.89
2019-05-14T01:27:01.639Z,4.99
2019-05-14T01:29:33.736Z,4.85
2019-05-14T01:32:05.548Z,4.73
2019-05-14T01:34:38.448Z,4.54
2019-05-14T01:37:11.656Z,4.47
2019-05-14T01:39:43.926Z,4.40
2019-05-14T01:42:15.868Z,4.44
2019-05-14T01:44:47.708Z,4.51
2019-05-14T01:47:21.413Z,4.56
2019-05-14T01:49:53.379Z,4.54
2019-05-14T01:52:25.259Z,4.42
2019-05-14T01:54:57.174Z,4.42
2019-05-14T01:57:31.088Z,4.31
2019-05-14T02:00:02.541Z,4.36
2019-05-14T02:02:34.583Z,4.34
2019-05-14T02:05:06.568Z,4.26
2019-05-14T02:07:38.466Z,4.05
2019-05-14T02:10:11.647Z,3.88
2019-05-14T02:12:43.618Z,3.82
2019-05-14T02:15:15.823Z,3.91
2019-05-14T02:17:47.749Z,4.02
2019-05-14T02:20:21.606Z,4.37
2019-05-14T02:22:53.235Z,4.32
2019-05-14T02:25:25.033Z,4.30
2019-05-14T02:27:56.896Z,4.30
2019-05-14T02:30:45.730Z,4.15
2019-05-14T02:33:02.295Z,4.05
2019-05-14T02:35:34.174Z,4.05
2019-05-14T02:38:05.318Z,3.90
2019-05-14T02:40:40.370Z,3.92
2019-05-14T02:43:11.791Z,3.92
2019-05-14T02:46:00.857Z,3.91
2019-05-14T02:48:20.194Z,3.75
2019-05-14T02:50:51.196Z,3.68
2019-05-14T02:53:23.072Z,3.68
2019-05-14T02:55:55.028Z,3.60
2019-05-14T02:58:29.757Z,3.62
2019-05-14T03:01:00.898Z,3.52
2019-05-14T03:03:32.944Z,3.60
2019-05-14T03:06:04.207Z,3.61
2019-05-14T03:08:38.848Z,3.59
2019-05-14T03:11:09.739Z,3.65
2019-05-14T03:13:42.800Z,3.61
2019-05-14T03:16:25.938Z,3.55
2019-05-14T03:18:50.232Z,3.53
2019-05-14T03:21:22.427Z,3.57
2019-05-14T03:23:54.519Z,3.61
2019-05-14T03:26:28.605Z,3.63
2019-05-14T03:29:00.098Z,3.61
2019-05-14T03:31:33.821Z,3.56
2019-05-14T03:34:06.245Z,3.51
2019-05-14T03:36:42.915Z,3.56
2019-05-14T03:39:11.698Z,3.52
2019-05-14T03:41:43.677Z,3.70
2019-05-14T03:44:15.493Z,3.63
2019-05-14T03:46:54.532Z,3.73
2019-05-14T03:49:20.956Z,3.66
2019-05-14T03:51:52.883Z,3.61
2019-05-14T03:54:25.087Z,3.65
2019-05-14T03:57:00.097Z,3.70
2019-05-14T03:59:30.641Z,3.74
2019-05-14T04:02:02.939Z,3.72
2019-05-14T04:04:39.494Z,3.80
2019-05-14T04:07:12.836Z,3.87
2019-05-14T04:09:45.414Z,3.87
2019-05-14T04:12:19.311Z,4.06
2019-05-14T04:14:59.639Z,4.09
2019-05-14T04:17:41.130Z,4.21
2019-05-14T04:20:09.439Z,4.21
2019-05-14T04:22:41.750Z,4.26
2019-05-14T04:25:13.888Z,4.37
2019-05-14T04:27:49.428Z,4.38
2019-05-14T04:30:24.275Z,4.42
2019-05-14T04:32:59.489Z,4.50
2019-05-14T04:35:31.744Z,4.63
2019-05-14T04:38:03.133Z,4.80
2019-05-14T04:40:35.186Z,4.83
2019-05-14T04:43:10.202Z,4.98
2019-05-14T04:45:40.580Z,5.07
2019-05-14T04:48:27.060Z,5.22
2019-05-14T04:50:49.763Z,5.19
2019-05-14T04:53:23.418Z,5.37
2019-05-14T04:56:12.866Z,5.53
2019-05-14T04:58:49.715Z,5.46
2019-05-14T05:01:22.939Z,5.47
2019-05-14T05:03:58.877Z,5.57
2019-05-14T05:06:29.865Z,5.72
2019-05-14T05:09:05.185Z,5.80
2019-05-14T05:11:49.681Z,5.88
2019-05-14T05:14:19.318Z,5.93
2019-05-14T05:17:00.510Z,6.13
2019-05-14T05:19:32.598Z,6.40
2019-05-14T05:22:03.910Z,6.52
2019-05-14T05:24:38.009Z,6.73
2019-05-14T05:27:09.518Z,6.94
2019-05-14T05:29:40.843Z,7.03
2019-05-14T05:32:12.710Z,6.96
2019-05-14T05:34:44.799Z,6.99
2019-05-14T05:37:18.830Z,6.89
2019-05-14T05:39:50.468Z,6.82
2019-05-14T05:42:24.998Z,6.97
2019-05-14T05:44:58.764Z,7.30
2019-05-14T05:47:30.905Z,7.66
2019-05-14T05:50:04.586Z,7.59
2019-05-14T05:52:38.699Z,7.60
2019-05-14T05:55:10.729Z,7.56
2019-05-14T05:57:42.677Z,7.87
2019-05-14T06:00:15.370Z,7.75
2019-05-14T06:02:48.910Z,7.54
2019-05-14T06:05:20.274Z,7.51
2019-05-14T06:07:52.133Z,7.56
2019-05-14T06:10:24.065Z,7.87
2019-05-14T06:12:58.394Z,8.06
2019-05-14T06:15:43.841Z,8.11
2019-05-14T06:18:15.082Z,8.10
2019-05-14T06:20:38.693Z,8.10
2019-05-14T06:23:10.781Z,8.47
2019-05-14T06:25:42.857Z,8.38
2019-05-14T06:28:14.881Z,8.21
2019-05-14T06:30:48.430Z,8.00
2019-05-14T06:33:19.892Z,8.35
2019-05-14T06:35:51.791Z,8.12
2019-05-14T06:38:23.679Z,8.34
2019-05-14T06:40:55.031Z,8.74
2019-05-14T06:43:28.730Z,8.37
2019-05-14T06:46:00.594Z,8.69
2019-05-14T06:48:34.818Z,8.94
2019-05-14T06:51:08.644Z,9.36
2019-05-14T06:53:40.305Z,9.68
2019-05-14T06:56:12.200Z,9.49
2019-05-14T06:58:43.501Z,10.07
2019-05-14T07:01:15.499Z,10.59
2019-05-14T07:03:48.899Z,10.52
2019-05-14T07:06:20.745Z,10.62
2019-05-14T07:08:52.908Z,9.71
2019-05-14T07:11:25.017Z,9.41
2019-05-14T07:14:00.145Z,8.98
2019-05-14T07:16:32.061Z,9.33
2019-05-14T07:19:09.277Z,8.96
2019-05-14T07:21:40.741Z,8.96
2019-05-14T07:24:15.185Z,9.47
2019-05-14T07:26:49.409Z,9.59
2019-05-14T07:29:25.659Z,10.43
2019-05-14T07:32:00.641Z,11.33
2019-05-14T07:34:42.641Z,10.86
2019-05-14T07:37:14.584Z,11.77
2019-05-14T07:39:48.627Z,11.67
2019-05-14T07:42:21.535Z,11.47
2019-05-14T07:44:53.509Z,12.05
2019-05-14T07:47:25.554Z,12.59
2019-05-14T07:49:58.245Z,12.30
2019-05-14T07:52:30.317Z,11.16
2019-05-14T07:55:02.467Z,11.09
2019-05-14T07:57:34.532Z,10.67
2019-05-14T08:00:08.166Z,10.65
2019-05-14T08:02:40.258Z,11.20
2019-05-14T08:05:12.601Z,12.08
2019-05-14T08:07:44.536Z,12.68
2019-05-14T08:10:18.573Z,11.65
2019-05-14T08:12:50.753Z,12.23
2019-05-14T08:15:22.719Z,11.44
2019-05-14T08:17:54.557Z,10.55
2019-05-14T08:20:28.534Z,10.24
2019-05-14T08:23:00.177Z,10.18
2019-05-14T08:25:32.131Z,10.43
2019-05-14T08:28:03.974Z,11.02
2019-05-14T08:30:35.904Z,11.41
2019-05-14T08:33:09.000Z,11.11
2019-05-14T08:35:40.973Z,11.84
2019-05-14T08:38:12.885Z,12.44
2019-05-14T08:40:45.232Z,12.65
2019-05-14T08:43:18.507Z,12.36
2019-05-14T08:45:50.508Z,11.92
2019-05-14T08:48:22.010Z,10.80
2019-05-14T08:50:53.865Z,11.29
2019-05-14T08:53:25.055Z,10.98
2019-05-14T08:55:58.864Z,10.85
2019-05-14T08:58:30.575Z,10.81
2019-05-14T09:01:02.826Z,10.57
2019-05-14T09:03:34.752Z,11.16
2019-05-14T09:06:08.917Z,10.63
2019-05-14T09:08:40.341Z,10.43
2019-05-14T09:11:13.825Z,10.66
2019-05-14T09:13:45.752Z,10.78
2019-05-14T09:16:19.412Z,10.86
2019-05-14T09:18:51.602Z,11.04
2019-05-14T09:21:26.491Z,11.13
2019-05-14T09:23:58.842Z,10.89
2019-05-14T09:26:39.054Z,10.58
2019-05-14T09:29:25.060Z,10.68
2019-05-14T09:31:43.913Z,10.54
2019-05-14T09:34:15.378Z,10.70
2019-05-14T09:36:50.332Z,10.85
2019-05-14T09:39:22.653Z,11.48
2019-05-14T09:41:59.238Z,11.85
2019-05-14T09:44:35.588Z,12.64
2019-05-14T09:47:08.455Z,11.95
2019-05-14T09:49:40.906Z,11.29
2019-05-14T09:52:12.964Z,10.98
2019-05-14T09:54:49.593Z,11.25
2019-05-14T09:57:22.033Z,11.63
2019-05-14T09:59:54.207Z,12.31
2019-05-14T10:02:26.590Z,11.95
2019-05-14T10:05:04.192Z,12.61
2019-05-14T10:07:39.681Z,12.58
2019-05-14T10:10:14.902Z,12.60
2019-05-14T10:12:54.004Z,13.17
2019-05-14T10:15:21.797Z,14.36
2019-05-14T10:17:53.828Z,14.14
2019-05-14T10:20:40.418Z,12.90
2019-05-14T10:22:59.625Z,13.30
2019-05-14T10:25:32.913Z,13.55
2019-05-14T10:28:08.445Z,13.11
2019-05-14T10:30:39.752Z,12.11
2019-05-14T10:33:14.951Z,12.16
2019-05-14T10:35:48.659Z,12.62
2019-05-14T10:38:21.921Z,13.08
2019-05-14T10:40:58.919Z,13.18
2019-05-14T10:43:30.847Z,13.90
2019-05-14T10:46:02.850Z,13.72
2019-05-14T10:48:39.329Z,14.23
2019-05-14T10:51:10.050Z,13.98
2019-05-14T10:53:43.819Z,13.54
2019-05-14T10:56:19.250Z,13.26
2019-05-14T10:58:52.168Z,14.11
2019-05-14T11:01:25.196Z,13.60
2019-05-14T11:03:58.592Z,13.20
2019-05-14T11:06:30.987Z,12.72
2019-05-14T11:09:03.363Z,11.88
2019-05-14T11:11:38.254Z,12.19
2019-05-14T11:14:09.889Z,12.26
2019-05-14T11:16:43.324Z,12.91
2019-05-14T11:19:15.252Z,13.01
2019-05-14T11:21:51.268Z,13.42
2019-05-14T11:24:25.791Z,13.41
2019-05-14T11:27:11.305Z,13.39
2019-05-14T11:29:43.291Z,14.56
2019-05-14T11:32:18.455Z,14.41
2019-05-14T11:34:53.652Z,13.76
2019-05-14T11:37:28.141Z,14.39
2019-05-14T11:40:00.248Z,13.31
2019-05-14T11:42:33.876Z,13.51
2019-05-14T11:45:08.801Z,13.14
2019-05-14T11:47:40.019Z,13.30
2019-05-14T11:50:12.403Z,13.02
2019-05-14T11:52:44.176Z,13.43
2019-05-14T11:55:18.756Z,14.64
2019-05-14T11:57:50.319Z,14.52
2019-05-14T12:00:25.794Z,14.76
2019-05-14T12:10:59.045Z,13.72
2019-05-14T12:13:32.934Z,13.79
2019-05-14T12:16:04.336Z,13.45
2019-05-14T12:18:41.728Z,13.70
2019-05-14T12:21:11.159Z,14.06
2019-05-14T12:23:43.194Z,13.63
2019-05-14T12:26:14.395Z,13.40
2019-05-14T12:28:49.172Z,13.54
2019-05-14T12:31:19.903Z,13.85
2019-05-14T12:33:51.793Z,13.82
2019-05-14T12:36:22.954Z,14.18
2019-05-14T12:38:54.874Z,14.07
2019-05-14T12:41:28.859Z,14.17
2019-05-14T12:43:59.663Z,13.95
2019-05-14T12:46:31.554Z,13.68
2019-05-14T12:49:03.440Z,13.02
2019-05-14T12:51:41.400Z,13.01
2019-05-14T12:54:09.288Z,13.32
2019-05-14T12:56:41.209Z,13.17
2019-05-14T12:59:14.181Z,13.75
2019-05-14T13:01:45.421Z,13.88
2019-05-14T13:04:20.085Z,13.76
2019-05-14T13:06:50.928Z,14.03
2019-05-14T13:09:22.167Z,14.49
2019-05-14T13:11:54.080Z,15.06
2019-05-14T13:14:25.286Z,15.28
2019-05-14T13:16:59.600Z,14.93
2019-05-14T13:19:30.182Z,14.29
2019-05-14T13:22:13.233Z,14.55
2019-05-14T13:24:39.173Z,13.69
2019-05-14T13:27:09.639Z,14.10
2019-05-14T13:29:40.996Z,13.86
2019-05-14T13:32:12.795Z,13.93
2019-05-14T13:34:44.111Z,13.94
2019-05-14T13:37:15.951Z,13.99
2019-05-14T13:39:52.864Z,13.84
2019-05-14T13:42:20.840Z,13.82
2019-05-14T13:44:52.031Z,14.02
2019-05-14T13:47:23.889Z,14.22
2019-05-14T13:49:55.493Z,15.17
2019-05-14T13:52:29.266Z,14.66
2019-05-14T13:55:01.107Z,14.84
2019-05-14T13:57:33.353Z,14.20
2019-05-14T14:00:11.551Z,14.00
2019-05-14T14:02:40.132Z,14.67
2019-05-14T14:05:12.696Z,14.32
2019-05-14T14:07:44.722Z,14.66
2019-05-14T14:10:16.193Z,14.10
2019-05-14T14:12:49.778Z,14.38
2019-05-14T14:15:21.111Z,14.05
2019-05-14T14:17:52.255Z,14.57
2019-05-14T14:20:23.369Z,14.68
2019-05-14T14:22:55.279Z,14.19
2019-05-14T14:25:26.485Z,14.14
2019-05-14T14:28:00.424Z,14.92
2019-05-14T14:30:31.737Z,15.29
2019-05-14T14:33:02.948Z,14.84
2019-05-14T14:35:34.387Z,15.00
2019-05-14T14:38:08.509Z,14.20
2019-05-14T14:40:39.706Z,14.35
2019-05-14T14:43:11.810Z,13.92
2019-05-14T14:45:46.229Z,14.32
2019-05-14T14:48:20.189Z,14.61
2019-05-14T14:50:50.394Z,14.44
2019-05-14T14:53:41.479Z,14.15
2019-05-14T14:55:55.086Z,14.46
2019-05-14T14:58:28.597Z,14.74
2019-05-14T15:01:00.142Z,14.68
2019-05-14T15:03:31.300Z,14.71
2019-05-14T15:06:03.162Z,14.32
2019-05-14T15:08:35.056Z,14.36
2019-05-14T15:11:08.630Z,13.51
2019-05-14T15:13:39.239Z,13.17
2019-05-14T15:16:13.322Z,13.15
2019-05-14T15:18:44.626Z,13.56
2019-05-14T15:21:18.948Z,13.88
2019-05-14T15:24:06.025Z,14.12
2019-05-14T15:26:22.951Z,14.52
2019-05-14T15:28:54.355Z,14.87
2019-05-14T15:31:29.065Z,15.16
2019-05-14T15:33:59.559Z,15.15
2019-05-14T15:36:30.735Z,15.55
2019-05-14T15:39:02.256Z,15.37
2019-05-14T15:41:33.356Z,15.12
2019-05-14T15:44:05.233Z,14.41
2019-05-14T15:46:41.534Z,13.95
2019-05-14T15:49:11.577Z,14.11
2019-05-14T15:51:43.443Z,14.56
2019-05-14T15:54:35.160Z,14.50
2019-05-14T15:56:49.446Z,14.56
2019-05-14T15:59:21.308Z,14.22
2019-05-14T16:01:53.169Z,14.26
2019-05-14T16:04:24.359Z,14.41
2019-05-14T16:06:58.593Z,14.13
2019-05-14T16:09:30.689Z,14.16
2019-05-14T16:12:02.565Z,14.30
2019-05-14T16:14:34.475Z,14.66
2019-05-14T16:17:11.202Z,14.00
2019-05-14T16:19:40.262Z,14.05
2019-05-14T16:22:11.409Z,14.65
2019-05-14T16:24:55.889Z,14.42
2019-05-14T16:27:19.559Z,14.17
2019-05-14T16:29:49.476Z,13.96
2019-05-14T16:32:20.585Z,14.23
2019-05-14T16:34:51.814Z,14.08
2019-05-14T16:37:23.985Z,14.07
2019-05-14T16:39:55.254Z,14.01
2019-05-14T16:42:29.089Z,14.11
2019-05-14T16:44:59.266Z,14.21
2019-05-14T16:47:31.101Z,14.11
2019-05-14T16:50:02.439Z,14.42
2019-05-14T16:52:34.283Z,14.28
2019-05-14T16:55:22.270Z,14.09
2019-05-14T16:57:41.291Z,14.48
2019-05-14T17:00:13.774Z,14.16
2019-05-14T17:02:45.025Z,14.51
2019-05-14T17:05:16.511Z,14.48
2019-05-14T17:07:48.973Z,14.43
2019-05-14T17:10:20.916Z,13.92
2019-05-14T17:12:57.237Z,14.17
2019-05-14T17:15:25.311Z,14.27
2019-05-14T17:17:59.652Z,13.87
2019-05-14T17:20:30.748Z,14.23
2019-05-14T17:23:02.610Z,14.15
2019-05-14T17:25:34.488Z,14.42
2019-05-14T17:28:08.522Z,14.69
2019-05-14T17:30:40.496Z,14.29
2019-05-14T17:33:12.561Z,14.05
2019-05-14T17:35:43.790Z,14.13
2019-05-14T17:38:15.625Z,14.06
2019-05-14T17:40:48.846Z,14.33
2019-05-14T17:43:23.307Z,13.56
2019-05-14T17:45:53.953Z,14.24
2019-05-14T17:48:25.211Z,14.06
2019-05-14T17:50:59.046Z,14.32
2019-05-14T17:53:30.802Z,14.29
2019-05-14T17:56:02.642Z,13.66
2019-05-14T17:58:34.633Z,14.04
2019-05-14T18:01:08.813Z,14.04
2019-05-14T18:03:40.225Z,14.21
2019-05-14T18:06:13.424Z,14.10
2019-05-14T18:08:45.393Z,13.92
2019-05-14T18:11:19.170Z,13.44
2019-05-14T18:13:51.491Z,12.62
2019-05-14T18:16:23.411Z,12.82
2019-05-14T18:18:55.335Z,12.40
2019-05-14T18:21:28.455Z,11.81
2019-05-14T18:24:00.613Z,11.78
2019-05-14T18:26:32.631Z,11.80
2019-05-14T18:29:04.710Z,11.60
2019-05-14T18:31:43.268Z,11.48
2019-05-14T18:34:11.210Z,11.09
2019-05-14T18:36:43.221Z,11.16
2019-05-14T18:39:18.328Z,11.02
2019-05-14T18:41:49.879Z,10.96
2019-05-14T18:44:21.324Z,10.70
2019-05-14T18:46:53.134Z,10.60
2019-05-14T18:49:25.112Z,10.61
2019-05-14T18:51:59.092Z,10.53
2019-05-14T18:54:29.497Z,10.20
2019-05-14T18:57:02.440Z,10.28
2019-05-14T18:59:35.460Z,10.21
2019-05-14T19:02:08.678Z,10.07
2019-05-14T19:04:40.776Z,9.88
2019-05-14T19:07:15.472Z,9.97
2019-05-14T19:09:46.487Z,9.92
2019-05-14T19:12:19.087Z,9.80
2019-05-14T19:14:50.459Z,9.66
2019-05-14T19:17:22.225Z,9.54
2019-05-14T19:19:53.426Z,9.60
2019-05-14T19:22:24.614Z,9.49
2019-05-14T19:24:58.519Z,9.46
2019-05-14T19:27:29.673Z,9.53
2019-05-14T19:30:03.247Z,9.26
2019-05-14T19:32:35.580Z,9.28
2019-05-14T19:35:08.687Z,9.16
2019-05-14T19:37:40.797Z,9.11
2019-05-14T19:40:12.610Z,8.99
2019-05-14T19:42:44.467Z,9.01
2019-05-14T19:45:16.008Z,8.89
2019-05-14T19:47:49.371Z,8.82
2019-05-14T19:50:20.185Z,8.96
2019-05-14T19:52:51.540Z,8.91
2019-05-14T19:55:23.416Z,8.68
2019-05-14T19:57:55.341Z,8.76
2019-05-14T20:00:28.918Z,8.68
2019-05-14T20:03:00.871Z,8.63
2019-05-14T20:05:32.451Z,8.63
2019-05-14T20:08:04.407Z,8.66
2019-05-14T20:10:35.579Z,8.45
2019-05-14T20:13:07.395Z,8.32
2019-05-14T20:15:39.939Z,8.35
2019-05-14T20:18:11.147Z,8.23
2019-05-14T20:20:43.373Z,8.25
2019-05-14T20:23:14.571Z,8.28
2019-05-14T20:25:48.148Z,8.22
2019-05-14T20:28:19.573Z,8.15
2019-05-14T20:30:51.659Z,8.00
2019-05-14T20:33:23.569Z,7.95
2019-05-14T20:35:54.881Z,7.87
2019-05-14T20:38:26.065Z,8.03
2019-05-14T20:40:58.152Z,7.96
2019-05-14T20:43:29.781Z,7.82
2019-05-14T20:46:01.611Z,7.91
2019-05-14T20:48:34.051Z,7.71
2019-05-14T20:51:05.167Z,7.69
2019-05-14T20:53:39.406Z,7.74
2019-05-14T23:07:58.383Z,5.71
2019-05-14T23:10:30.373Z,5.61
2019-05-14T23:13:02.287Z,5.64
2019-05-14T23:15:33.560Z,5.61
2019-05-14T23:18:05.428Z,5.61
2019-05-14T23:20:39.134Z,5.58
2019-05-14T23:23:11.226Z,5.55
2019-05-14T23:25:42.433Z,5.45
2019-05-14T23:28:14.237Z,5.35
2019-05-14T23:30:48.155Z,5.37
2019-05-14T23:33:20.105Z,5.38
2019-05-14T23:35:51.557Z,5.17
2019-05-14T23:38:23.405Z,5.24
2019-05-14T23:40:58.642Z,5.26
2019-05-14T23:43:29.926Z,5.23
2019-05-14T23:46:01.735Z,5.18
2019-05-14T23:48:32.955Z,5.09
2019-05-14T23:51:04.789Z,5.07
2019-05-14T23:53:38.846Z,5.08
2019-05-14T23:56:10.249Z,5.17
2019-05-14T23:58:54.222Z,5.15
